Time;durP1;ratioP1;P1;durP2;ratioP2;P2;SDS_P1;SDS_P2;PMS_P1;PMS_P2;Temp;Humidity;BMP_temperature;BMP_pressure;BME280_temperature;BME280_humidity;BME280_pressure;Samples;Min_cycle;Max_cycle;Signal;HPM_P1;HPM_P2
2022/10/02 00:02:34;;;;;;;14.40;2.42;;;14.70;99.90;;;;;;4994032;28;20035;-51
2022/10/02 00:05:06;;;;;;;12.73;1.88;;;14.70;99.90;;;;;;4982457;28;20085;-48
2022/10/02 00:07:41;;;;;;;11.82;2.40;;;14.70;99.90;;;;;;4993966;28;20037;-49
2022/10/02 00:10:16;;;;;;;12.90;2.83;;;14.70;99.90;;;;;;4994192;28;20030;-53
2022/10/02 00:12:44;;;;;;;12.77;2.03;;;14.60;99.90;;;;;;4993984;28;20473;-49
2022/10/02 00:15:17;;;;;;;13.90;2.33;;;14.60;99.90;;;;;;4993929;28;20113;-52
2022/10/02 00:17:46;;;;;;;11.35;2.30;;;14.60;99.90;;;;;;4993761;28;20038;-51
2022/10/02 00:20:15;;;;;;;14.07;1.88;;;14.60;99.90;;;;;;4993893;28;20080;-48
2022/10/02 00:22:51;;;;;;;16.02;3.00;;;14.60;99.90;;;;;;4993810;28;20126;-50
2022/10/02 00:25:59;;;;;;;13.75;2.05;;;14.60;99.90;;;;;;4981200;28;20030;-48
2022/10/02 00:28:36;;;;;;;9.52;1.55;;;14.60;99.90;;;;;;4993644;28;20023;-48
2022/10/02 00:31:43;;;;;;;11.40;2.58;;;14.60;99.90;;;;;;4993448;28;20129;-50
2022/10/02 00:34:31;;;;;;;7.05;1.95;;;14.60;99.90;;;;;;4932551;28;20544;-47
2022/10/02 00:37:24;;;;;;;6.93;1.70;;;14.60;99.90;;;;;;4992650;28;20092;-49
2022/10/02 00:40:07;;;;;;;17.60;3.00;;;14.60;99.90;;;;;;4993461;28;20034;-47
2022/10/02 00:43:01;;;;;;;9.27;1.88;;;14.50;99.90;;;;;;4993306;28;20053;-52
2022/10/02 00:45:32;;;;;;;10.60;1.85;;;14.50;99.90;;;;;;4992738;28;20069;-46
2022/10/02 00:48:04;;;;;;;12.23;1.92;;;14.50;99.90;;;;;;4993447;28;20473;-46
2022/10/02 00:50:48;;;;;;;14.60;2.30;;;14.50;99.90;;;;;;4993108;28;20051;-50
2022/10/02 00:53:39;;;;;;;8.27;1.50;;;14.40;99.90;;;;;;4993339;28;20026;-48
2022/10/02 00:56:43;;;;;;;14.82;2.05;;;14.40;99.90;;;;;;4982224;28;20038;-46
2022/10/02 00:59:25;;;;;;;10.10;1.95;;;14.40;99.90;;;;;;4894507;29;20056;-46
2022/10/02 01:01:53;;;;;;;10.40;1.98;;;14.40;99.90;;;;;;4894725;29;20033;-46
2022/10/02 01:04:36;;;;;;;10.25;2.03;;;14.40;99.90;;;;;;4952470;28;20402;-46
2022/10/02 01:07:06;;;;;;;7.63;1.50;;;14.40;99.90;;;;;;4992956;28;20027;-54
2022/10/02 01:09:32;;;;;;;;;;;14.40;99.90;;;;;;4976191;28;20433;-46
2022/10/02 01:11:58;;;;;;;9.20;1.88;;;14.40;99.90;;;;;;4992614;28;19910;-46
2022/10/02 01:14:40;;;;;;;10.15;1.60;;;14.30;99.90;;;;;;4992613;28;20813;-50
2022/10/02 01:17:21;;;;;;;10.00;1.77;;;14.30;99.90;;;;;;4992677;28;20037;-48
2022/10/02 01:19:47;;;;;;;9.02;1.90;;;14.30;99.90;;;;;;4992557;28;20114;-48
2022/10/02 01:22:25;;;;;;;17.38;2.10;;;14.20;99.90;;;;;;4992568;28;20057;-50
2022/10/02 01:24:57;;;;;;;9.40;1.70;;;14.20;99.90;;;;;;4992569;28;20038;-49
2022/10/02 01:27:25;;;;;;;13.05;5.18;;;14.20;99.90;;;;;;4992309;28;20541;-46
2022/10/02 01:30:12;;;;;;;8.88;1.83;;;14.20;99.90;;;;;;4992274;28;20494;-47
2022/10/02 01:32:47;;;;;;;7.75;1.75;;;14.20;99.90;;;;;;4974873;28;20026;-45
2022/10/02 01:35:13;;;;;;;7.43;1.90;;;14.20;99.90;;;;;;4992308;28;20034;-48
2022/10/02 01:37:43;;;;;;;10.25;1.77;;;14.20;99.90;;;;;;4992503;28;20034;-47
2022/10/02 01:40:09;;;;;;;;;;;14.20;99.90;;;;;;4992491;28;20033;-45
2022/10/02 01:42:39;;;;;;;11.45;1.88;;;14.20;99.90;;;;;;4991737;28;19910;-46
2022/10/02 01:45:06;;;;;;;;;;;14.20;99.90;;;;;;4992537;28;20034;-45
2022/10/02 01:47:52;;;;;;;10.25;1.60;;;14.10;99.90;;;;;;4992114;28;20009;-46
2022/10/02 01:50:32;;;;;;;4.57;1.40;;;14.10;99.90;;;;;;4992085;28;20032;-45
2022/10/02 01:53:06;;;;;;;9.93;1.52;;;14.00;99.90;;;;;;4992362;28;20065;-45
2022/10/02 01:55:51;;;;;;;6.28;1.33;;;14.00;99.90;;;;;;4991618;28;20066;-45
2022/10/02 01:58:54;;;;;;;13.32;1.67;;;14.00;99.90;;;;;;4991588;28;20046;-45
2022/10/02 02:01:26;;;;;;;7.00;1.70;;;14.00;99.90;;;;;;4982023;28;20052;-45
2022/10/02 02:04:31;;;;;;;11.90;2.42;;;14.00;99.90;;;;;;4991712;28;20038;-46
2022/10/02 02:07:14;;;;;;;11.45;1.40;;;14.00;99.90;;;;;;4969356;28;20169;-50
2022/10/02 02:10:29;;;;;;;8.68;1.27;;;14.00;99.90;;;;;;4991775;28;20031;-50
2022/10/02 02:12:59;;;;;;;7.30;1.67;;;14.00;99.90;;;;;;4969808;28;20038;-51
2022/10/02 02:15:30;;;;;;;11.70;1.77;;;14.00;99.90;;;;;;4990481;28;20060;-49
2022/10/02 02:18:16;;;;;;;8.07;1.38;;;14.00;99.90;;;;;;4991619;28;20019;-48
2022/10/02 02:20:47;;;;;;;11.15;2.08;;;13.90;99.90;;;;;;4991804;28;20105;-52
2022/10/02 02:23:19;;;;;;;7.22;2.03;;;13.80;99.90;;;;;;4991645;28;20145;-48
2022/10/02 02:25:49;;;;;;;9.98;1.90;;;13.80;99.90;;;;;;4991698;28;20026;-53
2022/10/02 02:28:19;;;;;;;9.52;1.80;;;13.80;99.90;;;;;;4991539;28;20026;-50
2022/10/02 02:30:49;;;;;;;9.63;1.55;;;13.70;99.90;;;;;;4991642;28;20030;-45
2022/10/02 02:33:28;;;;;;;10.65;1.83;;;13.70;99.90;;;;;;4991331;28;20385;-50
2022/10/02 02:35:58;;;;;;;3.85;1.20;;;13.70;99.90;;;;;;4991635;28;20026;-45
2022/10/02 02:38:41;;;;;;;6.07;1.60;;;13.70;99.90;;;;;;4991443;28;20019;-47
2022/10/02 02:41:13;;;;;;;5.90;1.30;;;13.70;99.90;;;;;;4991118;28;20029;-51
2022/10/02 02:43:53;;;;;;;6.18;1.13;;;13.70;99.90;;;;;;4991350;28;20053;-47
2022/10/02 02:46:31;;;;;;;9.60;1.88;;;13.70;99.90;;;;;;4991287;28;20073;-47
2022/10/02 02:49:07;;;;;;;10.50;1.50;;;13.80;99.90;;;;;;4973849;28;20018;-45
2022/10/02 02:51:37;;;;;;;8.73;1.60;;;13.80;99.90;;;;;;4991298;28;20042;-48
2022/10/02 02:54:19;;;;;;;7.40;1.67;;;13.80;99.90;;;;;;4991430;28;20038;-48
2022/10/02 02:56:47;;;;;;;5.70;1.50;;;13.90;99.90;;;;;;4991150;28;20023;-48
2022/10/02 02:59:14;;;;;;;5.60;1.42;;;13.90;99.90;;;;;;4991110;28;20121;-46
2022/10/02 03:01:41;;;;;;;6.07;1.30;;;13.90;99.90;;;;;;4991290;28;20023;-46
2022/10/02 03:04:10;;;;;;;6.15;1.45;;;13.80;99.90;;;;;;4990650;28;20042;-50
2022/10/02 03:06:39;;;;;;;9.18;1.50;;;13.80;99.90;;;;;;4991113;28;20022;-46
2022/10/02 03:09:09;;;;;;;8.25;1.70;;;13.80;99.90;;;;;;4994431;28;20037;-49
2022/10/02 03:12:22;;;;;;;5.75;1.48;;;13.80;99.90;;;;;;4981845;28;20027;-52
2022/10/02 03:15:12;;;;;;;8.55;1.92;;;13.80;99.90;;;;;;4994769;28;20022;-46
2022/10/02 03:18:05;;;;;;;10.02;1.50;;;13.80;99.90;;;;;;4994579;28;20109;-46
2022/10/02 03:21:02;;;;;;;6.80;1.95;;;13.80;99.90;;;;;;4994798;28;20080;-45
2022/10/02 03:23:38;;;;;;;11.23;1.70;;;13.80;99.90;;;;;;4981003;28;20505;-53
2022/10/02 03:26:34;;;;;;;7.53;1.40;;;13.80;99.90;;;;;;4994719;28;20094;-47
2022/10/02 03:29:04;;;;;;;7.20;1.65;;;13.80;99.90;;;;;;5004979;28;20504;-47
2022/10/02 03:31:31;;;;;;;12.05;1.65;;;13.90;99.90;;;;;;5013625;28;20022;-45
2022/10/02 03:33:59;;;;;;;9.85;1.63;;;13.80;99.90;;;;;;4991191;28;20077;-49
2022/10/02 03:36:25;;;;;;;6.72;1.40;;;13.90;99.90;;;;;;5010228;28;20021;-46
2022/10/02 03:38:55;;;;;;;8.82;1.60;;;13.90;99.90;;;;;;5013974;28;20025;-51
2022/10/02 03:41:21;;;;;;;10.95;1.52;;;13.90;99.90;;;;;;5013954;28;20022;-50
2022/10/02 03:43:46;;;;;;;7.43;1.30;;;13.90;99.90;;;;;;5013843;28;20064;-47
2022/10/02 03:46:12;;;;;;;6.50;1.45;;;13.80;99.90;;;;;;5014045;28;20108;-48
2022/10/02 03:48:37;;;;;;;6.53;1.45;;;13.90;99.90;;;;;;5014069;28;20026;-48
2022/10/02 03:51:03;;;;;;;11.35;2.05;;;13.80;99.90;;;;;;5013698;28;20057;-49
2022/10/02 03:53:33;;;;;;;12.73;1.95;;;13.80;99.90;;;;;;5013960;28;20022;-48
2022/10/02 03:56:03;;;;;;;6.65;1.83;;;13.80;99.90;;;;;;5013777;28;20029;-48
2022/10/02 03:58:30;;;;;;;6.70;1.27;;;13.80;99.90;;;;;;5013593;28;20569;-48
2022/10/02 04:01:09;;;;;;;6.00;1.30;;;13.80;99.90;;;;;;5013577;28;20030;-46
2022/10/02 04:03:39;;;;;;;7.35;1.90;;;13.80;99.90;;;;;;5009141;28;20112;-46
2022/10/02 04:06:15;;;;;;;6.50;1.88;;;13.80;99.90;;;;;;5007947;28;20018;-46
2022/10/02 04:08:50;;;;;;;9.15;1.80;;;13.80;99.90;;;;;;4989840;28;20026;-47
2022/10/02 04:11:39;;;;;;;9.18;1.63;;;13.80;99.90;;;;;;5013623;28;20060;-48
2022/10/02 04:14:38;;;;;;;13.07;3.03;;;13.90;99.90;;;;;;5013648;28;20018;-49
2022/10/02 04:17:14;;;;;;;9.00;1.42;;;13.90;99.90;;;;;;4994896;28;20049;-47
2022/10/02 04:19:48;;;;;;;7.50;1.77;;;13.90;99.90;;;;;;4994697;28;20381;-48
2022/10/02 04:22:23;;;;;;;6.05;1.70;;;13.90;99.90;;;;;;5013390;28;20073;-49
2022/10/02 04:25:25;;;;;;;5.88;1.60;;;13.90;99.90;;;;;;5013144;28;20116;-46
2022/10/02 04:27:57;;;;;;;10.65;1.90;;;13.90;99.90;;;;;;5013164;28;20022;-50
2022/10/02 04:30:22;;;;;;;7.95;1.30;;;13.90;99.90;;;;;;5013049;28;20029;-49
2022/10/02 04:32:49;;;;;;;5.32;1.45;;;14.00;99.90;;;;;;5013209;28;20053;-46
2022/10/02 04:35:51;;;;;;;4.43;1.55;;;14.00;99.90;;;;;;5011217;28;20498;-51
2022/10/02 04:38:32;;;;;;;7.35;1.40;;;14.00;99.90;;;;;;5013043;28;20116;-46
2022/10/02 04:41:22;;;;;;;5.82;1.33;;;14.00;99.90;;;;;;4986827;28;20457;-48
2022/10/02 04:44:06;;;;;;;8.27;2.17;;;13.90;99.90;;;;;;5012694;28;20481;-47
2022/10/02 04:46:38;;;;;;;5.70;2.08;;;13.90;99.90;;;;;;5012798;28;20029;-47
2022/10/02 04:49:30;;;;;;;5.38;1.42;;;13.80;99.90;;;;;;5012719;28;20018;-48
2022/10/02 04:52:13;;;;;;;6.70;1.50;;;13.70;99.90;;;;;;5012758;28;20373;-51
2022/10/02 04:54:57;;;;;;;8.02;1.45;;;13.70;99.90;;;;;;4987867;28;20030;-46
2022/10/02 04:57:30;;;;;;;5.25;1.65;;;13.70;99.90;;;;;;5012392;28;20048;-48
2022/10/02 05:00:07;;;;;;;6.90;1.52;;;13.60;99.90;;;;;;5012647;28;20057;-50
2022/10/02 05:02:49;;;;;;;7.05;1.40;;;13.60;99.90;;;;;;5012381;28;20072;-47
2022/10/02 05:05:34;;;;;;;4.80;1.48;;;13.60;99.90;;;;;;5003165;28;20045;-46
2022/10/02 05:08:21;;;;;;;6.68;1.75;;;13.60;99.90;;;;;;5012491;28;20029;-49
2022/10/02 05:11:05;;;;;;;7.03;1.70;;;13.50;99.90;;;;;;5012799;28;20374;-49
2022/10/02 05:13:39;;;;;;;8.38;1.83;;;13.60;99.90;;;;;;4989989;28;20014;-47
2022/10/02 05:16:18;;;;;;;6.85;1.80;;;13.60;99.90;;;;;;5012427;28;20065;-46
2022/10/02 05:19:14;;;;;;;9.38;1.95;;;13.60;99.90;;;;;;5012418;28;20022;-48
2022/10/02 05:21:59;;;;;;;7.43;2.30;;;13.60;99.90;;;;;;4998733;28;20117;-51
2022/10/02 05:24:44;;;;;;;4.75;1.92;;;13.60;99.90;;;;;;5011863;28;20396;-48
2022/10/02 05:27:40;;;;;;;8.15;1.80;;;13.60;99.90;;;;;;5012145;28;20088;-46
2022/10/02 05:30:14;;;;;;;8.90;1.95;;;13.60;99.90;;;;;;5011880;28;20065;-53
2022/10/02 05:32:58;;;;;;;6.38;1.80;;;13.60;99.90;;;;;;5012145;28;20026;-46
2022/10/02 05:36:04;;;;;;;9.52;2.20;;;13.70;99.90;;;;;;4987538;28;20041;-46
2022/10/02 05:39:03;;;;;;;5.65;1.60;;;13.70;99.90;;;;;;4992912;28;20034;-45
2022/10/02 05:41:41;;;;;;;7.43;1.80;;;13.70;99.90;;;;;;4994860;28;20137;-45
2022/10/02 05:44:24;;;;;;;3.25;1.40;;;13.60;99.90;;;;;;4995988;28;20034;-49
2022/10/02 05:46:57;;;;;;;5.53;1.77;;;13.60;99.90;;;;;;4989970;28;20060;-47
2022/10/02 05:49:43;;;;;;;8.75;1.70;;;13.60;99.90;;;;;;4990467;28;20030;-48
2022/10/02 05:52:22;;;;;;;7.18;1.80;;;13.60;99.90;;;;;;4991691;28;20143;-46
2022/10/02 05:55:13;;;;;;;7.57;1.45;;;13.60;99.90;;;;;;4991891;28;20370;-47
2022/10/02 05:57:47;;;;;;;7.00;1.63;;;13.60;99.90;;;;;;4990955;28;20096;-51
2022/10/02 06:00:49;;;;;;;4.40;1.35;;;13.50;99.90;;;;;;4991717;28;20030;-48
2022/10/02 06:03:25;;;;;;;4.20;1.48;;;13.50;99.90;;;;;;4989569;28;20035;-48
2022/10/02 06:05:55;;;;;;;5.38;1.42;;;13.40;99.90;;;;;;4991617;28;20034;-49
2022/10/02 06:08:34;;;;;;;4.60;1.48;;;13.40;99.90;;;;;;4991736;28;20026;-47
2022/10/02 06:11:25;;;;;;;5.30;1.38;;;13.40;99.90;;;;;;4991728;28;20074;-51
2022/10/02 06:14:19;;;;;;;3.88;1.60;;;13.40;99.90;;;;;;4983265;28;20026;-49
2022/10/02 06:16:56;;;;;;;6.95;1.73;;;13.50;99.90;;;;;;4982273;28;20061;-45
2022/10/02 06:19:22;;;;;;;6.22;1.50;;;13.50;99.90;;;;;;4974169;28;20425;-46
2022/10/02 06:21:58;;;;;;;5.25;1.73;;;13.50;99.90;;;;;;4991597;28;20018;-49
2022/10/02 06:24:34;;;;;;;6.15;1.73;;;13.50;99.90;;;;;;4991405;28;20046;-45
2022/10/02 06:27:09;;;;;;;6.38;2.30;;;13.50;99.90;;;;;;4991658;28;20030;-51
2022/10/02 06:29:50;;;;;;;9.48;2.47;;;13.60;99.90;;;;;;4991598;28;20030;-46
2022/10/02 06:32:21;;;;;;;9.70;1.92;;;13.60;99.90;;;;;;4991168;28;20022;-48
2022/10/02 06:34:47;;;;;;;5.60;1.75;;;13.60;99.90;;;;;;4991293;28;20030;-45
2022/10/02 06:37:32;;;;;;;4.38;1.77;;;13.50;99.90;;;;;;4998274;28;20068;-45
2022/10/02 06:40:43;;;;;;;7.72;2.03;;;13.50;99.90;;;;;;4991947;28;20025;-48
2022/10/02 06:43:20;;;;;;;7.25;1.67;;;13.60;99.90;;;;;;4983401;28;20023;-48
2022/10/02 06:46:21;;;;;;;5.28;1.70;;;13.60;99.90;;;;;;5001056;28;20044;-45
2022/10/02 06:49:00;;;;;;;5.00;1.58;;;13.60;99.90;;;;;;4996563;28;20469;-52
2022/10/02 06:51:55;;;;;;;6.60;1.67;;;13.60;99.90;;;;;;5015038;28;20034;-45
2022/10/02 06:54:48;;;;;;;7.22;1.85;;;13.60;99.90;;;;;;5015051;28;20095;-46
2022/10/02 06:57:23;;;;;;;5.93;1.70;;;13.70;99.90;;;;;;5002621;28;20069;-50
2022/10/02 07:00:11;;;;;;;6.20;1.83;;;13.70;99.90;;;;;;5014884;28;20045;-47
2022/10/02 07:02:55;;;;;;;6.18;1.85;;;13.60;99.90;;;;;;5014798;28;20030;-52
2022/10/02 07:05:37;;;;;;;5.00;1.73;;;13.60;99.90;;;;;;5006895;28;20034;-52
2022/10/02 07:08:18;;;;;;;8.70;1.83;;;13.60;99.90;;;;;;4994605;28;20050;-47
2022/10/02 07:10:47;;;;;;;6.53;1.67;;;13.50;99.90;;;;;;4995099;28;20065;-49
2022/10/02 07:13:47;;;;;;;5.72;1.80;;;13.60;99.90;;;;;;4990270;28;20034;-45
2022/10/02 07:16:37;;;;;;;6.20;1.98;;;13.60;99.90;;;;;;4969472;28;20564;-45
2022/10/02 07:19:14;;;;;;;6.65;2.03;;;13.60;99.90;;;;;;4987618;28;20026;-47
2022/10/02 07:21:52;;;;;;;6.82;2.75;;;13.60;99.90;;;;;;4994698;28;20390;-46
2022/10/02 07:24:24;;;;;;;6.72;2.72;;;13.70;99.90;;;;;;4994893;28;20091;-50
2022/10/02 07:27:01;;;;;;;7.32;2.80;;;13.70;99.90;;;;;;4976947;28;20019;-45
2022/10/02 07:29:30;;;;;;;8.02;2.60;;;13.70;99.90;;;;;;4994748;28;20033;-45
2022/10/02 07:32:09;;;;;;;7.13;2.30;;;13.80;99.90;;;;;;4994132;28;20023;-46
2022/10/02 07:34:50;;;;;;;9.48;2.65;;;13.80;99.90;;;;;;4994571;28;20138;-49
2022/10/02 07:38:07;;;;;;;9.10;2.80;;;13.90;99.90;;;;;;5012413;28;20392;-46
2022/10/02 07:40:51;;;;;;;10.77;3.10;;;13.90;99.90;;;;;;4971399;28;20030;-46
2022/10/02 07:43:25;;;;;;;9.38;3.10;;;13.90;99.90;;;;;;5014179;28;20476;-49
2022/10/02 07:46:28;;;;;;;7.20;2.50;;;14.00;99.90;;;;;;5013941;28;20527;-45
2022/10/02 07:49:31;;;;;;;4.57;2.20;;;14.00;99.90;;;;;;5014125;28;20120;-45
2022/10/02 07:52:04;;;;;;;10.32;2.58;;;14.00;99.90;;;;;;5014011;28;20033;-50
2022/10/02 07:54:56;;;;;;;7.88;2.42;;;14.10;99.90;;;;;;4986922;28;20022;-47
2022/10/02 07:57:48;;;;;;;11.07;2.90;;;14.10;99.90;;;;;;5013523;28;20509;-49
2022/10/02 08:00:15;;;;;;;4.65;2.08;;;14.10;99.90;;;;;;5013789;28;20469;-52
2022/10/02 08:02:50;;;;;;;8.02;2.55;;;14.10;99.90;;;;;;5005230;28;20036;-47
2022/10/02 08:05:25;;;;;;;9.50;3.33;;;14.00;99.90;;;;;;4987101;28;20045;-47
2022/10/02 08:07:58;;;;;;;6.65;2.80;;;14.00;99.90;;;;;;5013748;28;20033;-46
2022/10/02 08:10:31;;;;;;;8.68;3.08;;;14.00;99.90;;;;;;5000584;28;20022;-46
2022/10/02 08:13:13;;;;;;;8.00;2.80;;;14.00;99.90;;;;;;4993840;28;20028;-46
2022/10/02 08:15:42;;;;;;;7.88;2.63;;;13.90;99.90;;;;;;4992766;28;20027;-46
2022/10/02 08:18:46;;;;;;;4.72;2.25;;;13.90;99.90;;;;;;4993422;28;20026;-47
2022/10/02 08:21:23;;;;;;;6.82;2.60;;;14.00;99.90;;;;;;4945397;28;20158;-46
2022/10/02 08:24:00;;;;;;;7.97;2.40;;;14.00;99.90;;;;;;4992815;28;20145;-53
2022/10/02 08:26:54;;;;;;;6.10;2.10;;;14.00;99.90;;;;;;4993039;28;20014;-51
2022/10/02 08:29:33;;;;;;;9.50;2.83;;;14.10;99.90;;;;;;4979491;28;20250;-46
2022/10/02 08:31:59;;;;;;;7.67;2.77;;;14.10;99.90;;;;;;4991687;28;20022;-55
2022/10/02 08:34:26;;;;;;;14.10;6.15;;;14.10;99.90;;;;;;4992975;28;20279;-48
2022/10/02 08:37:11;;;;;;;13.50;5.00;;;14.10;99.90;;;;;;4992842;28;20022;-51
2022/10/02 08:39:55;;;;;;;11.00;2.70;;;14.20;99.90;;;;;;4991360;28;20068;-46
2022/10/02 08:42:39;;;;;;;7.82;2.70;;;14.20;99.90;;;;;;4992607;28;20050;-47
2022/10/02 08:45:16;;;;;;;10.23;3.83;;;14.20;99.90;;;;;;4991638;28;20057;-49
2022/10/02 08:47:57;;;;;;;7.35;3.00;;;14.20;99.90;;;;;;4992181;28;20069;-46
2022/10/02 08:50:53;;;;;;;7.32;2.47;;;14.10;99.90;;;;;;4992810;28;20484;-51
2022/10/02 08:53:44;;;;;;;6.22;1.92;;;14.10;99.90;;;;;;4990786;28;20030;-45
2022/10/02 08:56:36;;;;;;;6.30;1.70;;;14.10;99.90;;;;;;4978561;28;20050;-48
2022/10/02 08:59:19;;;;;;;4.95;1.70;;;14.10;99.90;;;;;;4948214;28;20121;-46
2022/10/02 09:02:02;;;;;;;4.63;1.42;;;14.10;99.90;;;;;;4972208;28;20614;-49
2022/10/02 09:04:59;;;;;;;6.63;1.60;;;14.00;99.90;;;;;;4972720;28;20038;-49
2022/10/02 09:07:44;;;;;;;7.88;1.80;;;14.00;99.90;;;;;;4971558;28;20113;-49
2022/10/02 09:10:25;;;;;;;5.35;1.45;;;14.00;99.90;;;;;;4972390;28;20035;-47
2022/10/02 09:13:28;;;;;;;5.70;1.58;;;13.90;99.90;;;;;;4972162;28;20490;-45
2022/10/02 09:16:25;;;;;;;5.15;1.48;;;13.90;99.90;;;;;;4972082;28;20023;-49
2022/10/02 09:19:01;;;;;;;9.13;1.60;;;13.90;99.90;;;;;;4970413;28;20019;-50
2022/10/02 09:21:45;;;;;;;5.70;1.30;;;13.90;99.90;;;;;;4972506;28;20015;-46
2022/10/02 09:24:32;;;;;;;6.57;1.65;;;13.90;99.90;;;;;;4973363;28;20039;-46
2022/10/02 09:27:20;;;;;;;4.65;1.75;;;13.90;99.90;;;;;;4983961;28;20081;-47
2022/10/02 09:30:13;;;;;;;7.18;1.90;;;13.90;99.90;;;;;;4969743;28;20038;-47
2022/10/02 09:32:50;;;;;;;6.18;1.90;;;13.90;99.90;;;;;;4973504;28;20023;-47
2022/10/02 09:35:23;;;;;;;8.30;3.70;;;13.80;99.90;;;;;;4974550;28;20029;-44
2022/10/02 09:38:28;;;;;;;6.32;2.67;;;13.80;99.90;;;;;;4967373;28;20042;-48
2022/10/02 09:41:19;;;;;;;9.85;2.55;;;13.80;99.90;;;;;;4942368;28;20066;-48
2022/10/02 09:44:27;;;;;;;4.68;2.00;;;13.80;99.90;;;;;;4969871;28;20101;-49
2022/10/02 09:47:23;;;;;;;8.15;1.65;;;13.90;99.90;;;;;;4969038;28;20027;-50
2022/10/02 09:50:06;;;;;;;8.65;2.20;;;14.00;99.90;;;;;;4969589;28;20050;-47
2022/10/02 09:53:01;;;;;;;7.57;2.20;;;14.00;99.90;;;;;;4970855;28;20102;-51
2022/10/02 09:55:51;;;;;;;9.48;2.17;;;14.00;99.90;;;;;;4987069;28;20034;-46
2022/10/02 09:58:42;;;;;;;11.38;2.60;;;14.10;99.90;;;;;;4982254;28;20042;-48
2022/10/02 10:01:20;;;;;;;6.15;1.65;;;14.20;99.90;;;;;;4987573;28;20022;-46
2022/10/02 10:03:48;;;;;;;5.80;1.75;;;14.30;99.90;;;;;;4990833;28;20048;-50
2022/10/02 10:06:37;;;;;;;7.30;2.05;;;14.40;99.90;;;;;;4990837;28;20041;-46
2022/10/02 10:09:39;;;;;;;7.07;1.90;;;14.50;99.90;;;;;;4944074;28;20505;-45
2022/10/02 10:12:26;;;;;;;6.18;1.85;;;14.50;99.90;;;;;;4988261;28;20101;-45
2022/10/02 10:15:14;;;;;;;7.70;1.90;;;14.70;99.90;;;;;;4989899;28;20488;-47
2022/10/02 10:18:16;;;;;;;9.07;2.65;;;14.80;99.90;;;;;;4987910;28;20026;-47
2022/10/02 10:20:55;;;;;;;7.40;2.33;;;14.90;99.90;;;;;;4990016;28;20117;-49
2022/10/02 10:23:59;;;;;;;7.40;2.30;;;15.00;99.90;;;;;;4989245;28;20029;-44
2022/10/02 10:26:26;;;;;;;8.75;2.58;;;15.10;99.90;;;;;;4988849;28;20125;-46
2022/10/02 10:29:27;;;;;;;6.13;2.58;;;15.20;99.90;;;;;;4989514;28;20105;-47
2022/10/02 10:32:11;;;;;;;5.82;2.05;;;15.30;99.90;;;;;;4906287;28;20031;-46
2022/10/02 10:34:52;;;;;;;8.80;2.38;;;15.40;99.90;;;;;;4991348;28;20034;-45
2022/10/02 10:40:08;;;;;;;8.52;2.30;;;15.70;99.90;;;;;;4990759;28;20033;-47
2022/10/02 10:42:48;;;;;;;9.20;2.42;;;15.80;99.90;;;;;;4990008;28;20049;-48
2022/10/02 10:45:38;;;;;;;8.30;2.00;;;15.90;99.90;;;;;;4990701;28;20475;-48
2022/10/02 10:48:35;;;;;;;6.95;1.92;;;16.00;99.90;;;;;;4990277;28;20029;-46
2022/10/02 10:51:46;;;;;;;8.15;2.15;;;16.10;99.90;;;;;;4988641;28;20077;-45
2022/10/02 10:54:42;;;;;;;5.07;2.00;;;16.10;99.90;;;;;;4969136;28;20485;-45
2022/10/02 10:57:28;;;;;;;4.95;1.77;;;16.20;99.90;;;;;;4989291;28;20023;-48
2022/10/02 11:00:01;;;;;;;8.70;1.67;;;16.40;99.90;;;;;;4989804;28;20094;-46
2022/10/02 11:03:08;;;;;;;7.60;2.17;;;16.60;99.90;;;;;;4990599;28;20026;-49
2022/10/02 11:05:49;;;;;;;4.40;1.50;;;16.60;99.90;;;;;;4973712;28;20053;-50
2022/10/02 11:08:23;;;;;;;5.68;1.30;;;16.90;99.90;;;;;;4974777;28;20386;-48
2022/10/02 11:10:54;;;;;;;8.52;1.80;;;16.80;99.90;;;;;;4990113;28;20080;-48
2022/10/02 11:13:42;;;;;;;4.30;1.60;;;16.80;99.90;;;;;;4983254;28;20037;-51
2022/10/02 11:16:33;;;;;;;4.47;1.40;;;16.80;99.90;;;;;;4990278;28;20022;-54
2022/10/02 11:19:13;;;;;;;6.18;1.80;;;16.80;99.90;;;;;;4990435;28;20022;-50
2022/10/02 11:22:23;;;;;;;7.00;1.52;;;16.80;99.90;;;;;;4990299;28;20039;-47
2022/10/02 11:25:08;;;;;;;7.38;1.90;;;16.80;99.90;;;;;;4946180;28;20410;-51
2022/10/02 11:27:40;;;;;;;7.68;1.58;;;17.00;99.90;;;;;;4969877;28;20432;-49
2022/10/02 11:30:26;;;;;;;7.38;1.80;;;17.30;99.90;;;;;;4992862;28;20019;-45
2022/10/02 11:33:03;;;;;;;9.02;1.67;;;17.50;99.90;;;;;;4991997;28;20385;-45
2022/10/02 11:36:09;;;;;;;6.80;1.73;;;17.70;99.90;;;;;;4993613;28;20029;-47
2022/10/02 11:39:03;;;;;;;7.65;2.08;;;17.80;99.90;;;;;;4939047;28;20030;-45
2022/10/02 11:41:46;;;;;;;6.18;1.83;;;18.20;99.90;;;;;;4992860;28;20026;-45
2022/10/02 11:44:27;;;;;;;4.10;1.35;;;18.90;99.90;;;;;;4993877;28;20042;-45
2022/10/02 11:47:09;;;;;;;11.80;2.65;;;19.40;99.90;;;;;;4988218;28;20107;-45
2022/10/02 11:49:52;;;;;;;10.38;2.22;;;20.10;99.90;;;;;;4994326;28;20049;-46
2022/10/02 11:52:40;;;;;;;10.80;2.00;;;21.20;99.90;;;;;;4994249;28;20025;-45
2022/10/02 11:55:36;;;;;;;10.30;1.80;;;21.90;99.90;;;;;;4994300;28;20030;-45
2022/10/02 11:58:04;;;;;;;6.22;1.40;;;23.40;99.90;;;;;;4961446;28;20047;-49
2022/10/02 12:00:52;;;;;;;6.10;1.60;;;23.90;99.90;;;;;;4994508;28;20042;-49
2022/10/02 12:03:54;;;;;;;10.45;1.98;;;24.30;99.90;;;;;;4987851;28;20031;-50
2022/10/02 12:06:40;;;;;;;7.63;1.77;;;24.40;99.90;;;;;;4992608;28;20041;-50
2022/10/02 12:09:34;;;;;;;8.82;1.80;;;24.20;99.90;;;;;;4987953;28;20507;-46
2022/10/02 12:12:25;;;;;;;11.15;2.38;;;24.10;99.90;;;;;;4992579;28;20034;-45
2022/10/02 12:15:09;;;;;;;7.93;2.05;;;23.80;99.90;;;;;;4992225;28;20027;-50
2022/10/02 12:18:16;;;;;;;7.57;2.17;;;23.50;99.90;;;;;;4990447;28;20014;-44
2022/10/02 12:27:17;;;;;;;7.20;1.67;;;22.80;99.90;;;;;;4989754;28;20096;-46
2022/10/02 12:29:46;;;;;;;9.38;2.60;;;22.90;99.90;;;;;;4944645;28;20042;-54
2022/10/02 12:32:35;;;;;;;8.00;2.05;;;22.50;99.90;;;;;;4992078;28;20022;-46
2022/10/02 12:35:25;;;;;;;8.32;3.25;;;22.70;99.90;;;;;;4990900;28;20176;-47
2022/10/02 12:38:15;;;;;;;8.45;1.80;;;22.80;99.90;;;;;;4991521;28;20022;-47
2022/10/02 12:41:26;;;;;;;8.70;1.65;;;22.90;99.90;;;;;;4990844;28;20691;-46
2022/10/02 12:44:06;;;;;;;6.38;1.75;;;22.90;99.90;;;;;;4985714;28;20584;-44
2022/10/02 12:46:47;;;;;;;8.23;2.60;;;21.90;99.90;;;;;;4991092;28;20027;-44
2022/10/02 12:49:19;;;;;;;7.63;1.70;;;21.80;99.90;;;;;;4985627;28;20042;-48
2022/10/02 12:52:02;;;;;;;10.68;3.03;;;21.80;99.90;;;;;;4990994;28;20034;-44
2022/10/02 12:54:33;;;;;;;8.32;2.10;;;21.80;99.90;;;;;;4989305;28;20081;-48
2022/10/02 13:00:16;;;;;;;6.22;1.80;;;21.30;99.90;;;;;;4991137;28;20434;-44
2022/10/02 13:03:09;;;;;;;5.10;1.60;;;20.80;99.90;;;;;;4989633;28;20125;-48
2022/10/02 13:05:41;;;;;;;8.05;1.98;;;20.40;99.90;;;;;;4990111;28;20065;-47
2022/10/02 13:08:25;;;;;;;9.02;2.05;;;20.30;99.90;;;;;;4980336;28;20121;-45
2022/10/02 13:10:59;;;;;;;6.93;1.55;;;20.30;99.90;;;;;;4993353;28;20501;-48
2022/10/02 13:13:56;;;;;;;7.35;1.70;;;20.20;99.90;;;;;;5003000;28;20018;-44
2022/10/02 13:16:40;;;;;;;7.05;1.65;;;20.00;99.90;;;;;;4992709;28;20022;-44
2022/10/02 13:19:15;;;;;;;7.90;1.65;;;19.90;99.90;;;;;;4991414;28;20058;-44
2022/10/02 13:22:02;;;;;;;4.20;1.45;;;19.90;99.90;;;;;;4989844;28;20033;-44
2022/10/02 13:24:45;;;;;;;6.82;1.48;;;19.80;99.90;;;;;;4989474;28;20066;-47
2022/10/02 13:27:26;;;;;;;6.22;1.70;;;19.60;99.90;;;;;;4989998;28;20035;-44
2022/10/02 13:30:15;;;;;;;6.55;1.55;;;19.70;99.90;;;;;;4989837;28;20109;-50
2022/10/02 13:32:53;;;;;;;5.07;2.05;;;19.50;99.90;;;;;;4989261;28;20014;-49
2022/10/02 13:36:03;;;;;;;9.30;1.98;;;19.30;99.90;;;;;;4987372;28;20053;-47
2022/10/02 13:38:53;;;;;;;8.27;2.15;;;19.00;99.90;;;;;;5000605;28;20097;-48
2022/10/02 13:41:46;;;;;;;4.40;1.35;;;19.10;99.90;;;;;;5012103;28;20026;-47
2022/10/02 13:44:27;;;;;;;8.63;1.85;;;19.10;99.90;;;;;;5007984;28;20047;-45
2022/10/02 13:47:04;;;;;;;6.60;1.42;;;19.20;99.90;;;;;;4983338;28;20026;-47
2022/10/02 13:49:52;;;;;;;5.63;1.52;;;19.50;99.90;;;;;;4986504;28;20041;-44
2022/10/02 13:52:45;;;;;;;6.45;1.30;;;19.80;99.90;;;;;;4983303;28;20023;-46
2022/10/02 13:55:24;;;;;;;7.22;1.48;;;19.90;99.90;;;;;;4987856;28;20022;-48
2022/10/02 13:57:56;;;;;;;;;;;19.90;99.90;;;;;;4971755;28;20046;-51
2022/10/02 14:00:37;;;;;;;7.05;1.30;;;20.00;99.90;;;;;;4989894;28;19917;-53
2022/10/02 14:03:24;;;;;;;6.65;1.73;;;20.30;99.90;;;;;;4985671;28;20023;-54
2022/10/02 14:06:13;;;;;;;6.22;2.00;;;20.40;99.90;;;;;;4991809;28;20029;-55
2022/10/02 14:08:45;;;;;;;8.60;1.83;;;20.30;99.90;;;;;;4988967;28;20472;-47
2022/10/02 14:11:29;;;;;;;7.53;1.60;;;20.20;99.90;;;;;;4989524;28;20033;-44
2022/10/02 14:14:12;;;;;;;6.40;1.30;;;19.90;99.90;;;;;;4994368;28;20030;-45
2022/10/02 14:16:41;;;;;;;7.38;1.63;;;19.80;99.90;;;;;;4989766;28;20026;-44